Time;durP1;ratioP1;P1;durP2;ratioP2;P2;SDS_P1;SDS_P2;PMS_P1;PMS_P2;Temp;Humidity;BMP_temperature;BMP_pressure;BME280_temperature;BME280_humidity;BME280_pressure;Samples;Min_cycle;Max_cycle;Signal;HPM_P1;HPM_P2
2023/09/15 00:00:12;;;;;;;2.87;2.13;;;12.70;99.90;;;;;;5020426;28;20422;-75
2023/09/15 00:02:37;;;;;;;2.87;2.57;;;12.70;99.90;;;;;;5015610;28;20191;-75
2023/09/15 00:05:04;;;;;;;2.90;2.27;;;12.70;99.90;;;;;;5013983;28;20814;-75
2023/09/15 00:07:31;;;;;;;2.80;2.10;;;12.70;99.90;;;;;;5015360;28;20689;-75
2023/09/15 00:09:58;;;;;;;2.40;2.20;;;12.60;99.90;;;;;;5014303;28;20411;-75
2023/09/15 00:12:24;;;;;;;3.10;2.40;;;12.60;99.90;;;;;;5015343;28;20487;-75
2023/09/15 00:14:49;;;;;;;4.10;2.93;;;12.60;99.90;;;;;;5014980;28;20435;-75
2023/09/15 00:17:15;;;;;;;2.07;1.87;;;12.60;99.90;;;;;;5025069;28;20178;-76
2023/09/15 00:19:41;;;;;;;5.03;2.80;;;12.60;99.90;;;;;;5033552;28;20195;-75
2023/09/15 00:22:07;;;;;;;2.37;1.87;;;12.60;99.90;;;;;;5034751;28;20196;-75
2023/09/15 00:24:35;;;;;;;3.50;2.40;;;12.60;99.90;;;;;;5027340;28;20438;-75
2023/09/15 00:27:01;;;;;;;4.50;2.60;;;12.50;99.90;;;;;;5036468;28;20171;-75
2023/09/15 00:29:26;;;;;;;3.17;2.30;;;12.50;99.90;;;;;;5034369;28;20757;-75
2023/09/15 00:31:52;;;;;;;3.10;2.40;;;12.50;99.90;;;;;;5034270;28;20417;-75
2023/09/15 00:34:18;;;;;;;3.57;2.73;;;12.40;99.90;;;;;;5034352;28;20653;-75
2023/09/15 00:36:45;;;;;;;3.67;2.30;;;12.40;99.90;;;;;;5034597;28;20253;-75
2023/09/15 00:39:11;;;;;;;5.20;2.77;;;12.40;99.90;;;;;;5034649;28;20190;-75
2023/09/15 00:41:36;;;;;;;2.90;2.13;;;12.40;99.90;;;;;;5034345;28;20453;-75
2023/09/15 00:44:02;;;;;;;5.17;2.40;;;12.40;99.90;;;;;;5032883;28;20670;-75
2023/09/15 00:46:30;;;;;;;3.37;2.07;;;12.40;99.90;;;;;;5033514;28;20179;-75
2023/09/15 00:48:57;;;;;;;2.53;1.83;;;12.40;99.90;;;;;;5034588;28;20206;-75
2023/09/15 00:51:25;;;;;;;3.60;2.63;;;12.30;99.90;;;;;;5034700;28;20439;-75
2023/09/15 00:53:54;;;;;;;3.20;2.43;;;12.30;99.90;;;;;;5034100;28;20515;-75
2023/09/15 00:56:19;;;;;;;3.03;2.30;;;12.30;99.90;;;;;;5034398;28;20410;-74
2023/09/15 00:58:46;;;;;;;4.63;2.47;;;12.30;99.90;;;;;;5037154;28;20521;-74
2023/09/15 01:01:13;;;;;;;2.80;2.60;;;12.20;99.90;;;;;;5030030;28;20692;-74
2023/09/15 01:03:41;;;;;;;5.60;2.93;;;12.20;99.90;;;;;;5032223;28;20438;-74
2023/09/15 01:06:09;;;;;;;8.47;2.90;;;12.20;99.90;;;;;;5027360;28;20509;-74
2023/09/15 01:08:34;;;;;;;2.63;2.00;;;12.20;99.90;;;;;;5033037;28;20456;-74
2023/09/15 01:11:04;;;;;;;4.53;3.13;;;12.20;99.90;;;;;;5033946;28;20410;-74
2023/09/15 01:13:31;;;;;;;5.57;2.97;;;12.20;99.90;;;;;;5032377;28;20227;-74
2023/09/15 01:16:09;;;;;;;2.30;2.00;;;12.20;99.90;;;;;;5031205;28;20793;-74
2023/09/15 01:19:12;;;;;;;2.33;2.10;;;12.20;99.90;;;;;;5024755;28;20431;-74
2023/09/15 01:21:40;;;;;;;3.10;2.80;;;12.10;99.90;;;;;;5032350;28;20955;-74
2023/09/15 01:24:25;;;;;;;2.87;2.50;;;12.10;99.90;;;;;;5027764;28;20441;-74
2023/09/15 01:27:18;;;;;;;5.10;2.43;;;12.10;99.90;;;;;;5025887;28;20402;-74
2023/09/15 01:29:45;;;;;;;2.67;2.47;;;12.10;99.90;;;;;;5032252;28;20422;-74
2023/09/15 01:32:12;;;;;;;4.13;2.57;;;12.00;99.90;;;;;;5033558;28;20406;-74
2023/09/15 01:34:44;;;;;;;3.13;1.67;;;12.00;99.90;;;;;;5033239;28;20961;-74
2023/09/15 01:37:10;;;;;;;6.00;2.90;;;12.00;99.90;;;;;;5029152;28;20426;-74
2023/09/15 01:39:35;;;;;;;2.27;2.00;;;12.00;99.90;;;;;;5033481;28;20410;-74
2023/09/15 01:42:02;;;;;;;3.43;2.13;;;12.00;99.90;;;;;;5032013;28;20191;-74
2023/09/15 01:44:27;;;;;;;4.90;2.80;;;12.00;99.90;;;;;;5032975;28;20183;-74
2023/09/15 01:46:53;;;;;;;2.30;2.10;;;12.00;99.90;;;;;;5033340;28;20410;-73
2023/09/15 01:49:20;;;;;;;5.20;3.60;;;12.00;99.90;;;;;;5033105;28;20239;-74
2023/09/15 01:51:46;;;;;;;3.80;3.40;;;11.90;99.90;;;;;;5033034;28;20206;-74
2023/09/15 01:54:13;;;;;;;9.33;3.30;;;12.00;99.90;;;;;;5032686;28;20592;-74
2023/09/15 01:56:39;;;;;;;3.17;2.67;;;11.90;99.90;;;;;;5033011;28;20422;-74
2023/09/15 01:59:04;;;;;;;3.20;2.73;;;11.90;99.90;;;;;;5033051;28;20929;-74
2023/09/15 02:01:30;;;;;;;5.17;3.20;;;11.90;99.90;;;;;;5033078;28;20221;-74
2023/09/15 02:03:56;;;;;;;2.80;2.20;;;11.90;99.90;;;;;;5032759;28;20230;-74
2023/09/15 02:06:21;;;;;;;5.73;2.33;;;11.90;99.90;;;;;;5031495;28;20173;-74
2023/09/15 02:08:47;;;;;;;4.47;2.83;;;11.90;99.90;;;;;;5032988;28;20164;-74
2023/09/15 02:11:13;;;;;;;3.20;2.63;;;11.90;99.90;;;;;;5031606;28;20164;-74
2023/09/15 02:13:39;;;;;;;6.23;2.50;;;11.80;99.90;;;;;;5032621;28;20207;-74
2023/09/15 02:16:05;;;;;;;4.40;3.40;;;11.80;99.90;;;;;;5031566;28;20167;-73
2023/09/15 02:18:31;;;;;;;4.30;3.87;;;11.80;99.90;;;;;;5040070;28;20942;-73
2023/09/15 02:20:57;;;;;;;4.83;3.13;;;11.80;99.90;;;;;;5028284;28;20263;-73
2023/09/15 02:23:23;;;;;;;4.00;2.60;;;11.80;99.90;;;;;;5020762;28;20621;-73
2023/09/15 02:25:49;;;;;;;3.33;3.00;;;11.80;99.90;;;;;;5032489;28;20708;-73
2023/09/15 02:28:15;;;;;;;2.90;2.50;;;11.80;99.90;;;;;;5031441;28;20419;-73
2023/09/15 02:30:41;;;;;;;3.73;2.53;;;11.70;99.90;;;;;;5032658;28;20459;-73
2023/09/15 02:33:06;;;;;;;3.43;2.60;;;11.70;99.90;;;;;;5032411;28;20414;-73
2023/09/15 02:35:32;;;;;;;3.73;2.10;;;11.70;99.90;;;;;;5032395;28;20622;-73
2023/09/15 02:37:57;;;;;;;3.80;2.47;;;11.70;99.90;;;;;;5032544;28;20179;-73
2023/09/15 02:40:24;;;;;;;3.60;2.23;;;11.70;99.90;;;;;;5032378;28;20631;-73
2023/09/15 02:42:50;;;;;;;2.40;2.20;;;11.60;99.90;;;;;;5032289;28;20199;-73
2023/09/15 02:45:16;;;;;;;3.80;1.87;;;11.70;99.90;;;;;;5030850;28;20465;-73
2023/09/15 02:47:41;;;;;;;3.40;3.10;;;11.60;99.90;;;;;;5032327;28;20784;-73
2023/09/15 02:50:07;;;;;;;3.50;2.43;;;11.70;99.90;;;;;;5032326;28;20175;-73
2023/09/15 02:52:33;;;;;;;4.60;2.47;;;11.60;99.90;;;;;;5032321;28;20179;-73
2023/09/15 02:54:59;;;;;;;2.43;2.00;;;11.60;99.90;;;;;;5031842;28;20568;-73
2023/09/15 02:57:25;;;;;;;2.47;2.27;;;11.60;99.90;;;;;;5032226;28;20421;-73
2023/09/15 02:59:52;;;;;;;2.30;1.90;;;11.60;99.90;;;;;;5032232;28;20167;-73
2023/09/15 03:02:20;;;;;;;1.73;1.63;;;11.50;99.90;;;;;;5032030;28;20191;-73
2023/09/15 03:04:49;;;;;;;2.30;1.87;;;11.60;99.90;;;;;;5031770;28;20479;-73
2023/09/15 03:07:15;;;;;;;9.33;4.70;;;11.50;99.90;;;;;;5032002;28;20437;-73
2023/09/15 03:09:42;;;;;;;2.90;2.30;;;11.50;99.90;;;;;;5032088;28;20808;-73
2023/09/15 03:12:07;;;;;;;5.80;4.90;;;11.50;99.90;;;;;;5031861;28;20487;-73
2023/09/15 03:14:33;;;;;;;2.70;2.03;;;11.50;99.90;;;;;;5031641;28;20937;-73
2023/09/15 03:16:58;;;;;;;4.43;2.17;;;11.50;99.90;;;;;;5032763;28;20541;-73
2023/09/15 03:19:24;;;;;;;3.03;2.67;;;11.50;99.90;;;;;;5038935;28;20665;-73
2023/09/15 03:21:50;;;;;;;2.70;2.03;;;11.50;99.90;;;;;;5031636;28;20581;-73
2023/09/15 03:24:16;;;;;;;8.43;2.13;;;11.50;99.90;;;;;;5026316;28;20449;-73
2023/09/15 03:26:41;;;;;;;3.10;2.40;;;11.50;99.90;;;;;;5031649;28;20653;-73
2023/09/15 03:29:07;;;;;;;3.87;2.43;;;11.50;99.90;;;;;;5030437;28;20654;-73
2023/09/15 03:31:33;;;;;;;3.70;2.50;;;11.50;99.90;;;;;;5032167;28;20210;-74
2023/09/15 03:33:59;;;;;;;2.60;1.87;;;11.40;99.90;;;;;;5035485;28;20187;-73
2023/09/15 03:36:31;;;;;;;3.30;2.30;;;11.40;99.90;;;;;;5035553;28;20800;-74
2023/09/15 03:38:57;;;;;;;1.93;1.67;;;11.40;99.90;;;;;;5027856;28;20174;-75
2023/09/15 03:41:25;;;;;;;2.93;2.10;;;11.40;99.90;;;;;;5028239;28;20815;-75
2023/09/15 03:43:51;;;;;;;2.90;2.43;;;11.40;99.90;;;;;;5026605;28;20215;-75
2023/09/15 03:46:17;;;;;;;3.00;2.20;;;11.40;99.90;;;;;;5036046;28;20784;-75
2023/09/15 03:48:43;;;;;;;3.80;2.10;;;11.40;99.90;;;;;;5035464;28;20549;-74
2023/09/15 03:51:09;;;;;;;3.47;2.50;;;11.30;99.90;;;;;;5035384;28;20418;-75
2023/09/15 03:53:34;;;;;;;3.93;2.00;;;11.30;99.90;;;;;;5034976;28;20203;-73
2023/09/15 03:56:00;;;;;;;4.10;2.53;;;11.30;99.90;;;;;;5035497;28;20508;-73
2023/09/15 03:58:25;;;;;;;3.70;2.33;;;11.30;99.90;;;;;;5034054;28;20542;-75
2023/09/15 04:00:51;;;;;;;5.23;2.33;;;11.30;99.90;;;;;;5035255;28;20178;-74
2023/09/15 04:03:16;;;;;;;4.20;2.37;;;11.10;99.90;;;;;;5035102;28;20684;-75
2023/09/15 04:05:42;;;;;;;3.70;2.67;;;11.10;99.90;;;;;;5034973;28;20179;-74
2023/09/15 04:08:08;;;;;;;8.37;3.40;;;11.10;99.90;;;;;;5033877;28;20178;-74
2023/09/15 04:10:33;;;;;;;2.50;2.30;;;11.00;99.90;;;;;;5034760;28;20183;-73
2023/09/15 04:12:59;;;;;;;3.57;2.93;;;11.00;99.90;;;;;;5034567;28;20187;-73
2023/09/15 04:15:24;;;;;;;9.47;2.90;;;10.90;99.90;;;;;;5034605;28;20203;-73
2023/09/15 04:17:50;;;;;;;5.80;4.03;;;10.90;99.90;;;;;;5035026;28;20673;-73
2023/09/15 04:20:15;;;;;;;17.03;8.87;;;10.90;99.90;;;;;;5033174;28;20264;-73
2023/09/15 04:22:42;;;;;;;7.43;3.90;;;10.90;99.90;;;;;;5034823;28;20199;-75
2023/09/15 04:25:08;;;;;;;3.60;2.60;;;11.00;99.90;;;;;;5033169;28;20253;-75
2023/09/15 04:27:34;;;;;;;4.77;2.63;;;11.00;99.90;;;;;;5034523;28;20414;-74
2023/09/15 04:30:01;;;;;;;3.73;2.90;;;11.00;99.90;;;;;;5034582;28;20890;-73
2023/09/15 04:32:26;;;;;;;3.23;2.80;;;10.90;99.90;;;;;;5034737;28;20410;-73
2023/09/15 04:34:53;;;;;;;4.07;2.60;;;10.90;99.90;;;;;;5029473;28;20568;-74
2023/09/15 04:37:20;;;;;;;3.20;2.90;;;10.90;99.90;;;;;;5034331;28;20176;-73
2023/09/15 04:39:47;;;;;;;5.13;2.93;;;11.00;99.90;;;;;;5034478;28;20509;-73
2023/09/15 04:42:12;;;;;;;3.17;2.40;;;11.00;99.90;;;;;;5031837;28;20458;-72
2023/09/15 04:44:39;;;;;;;6.10;2.90;;;11.10;99.90;;;;;;5033050;28;20422;-72
2023/09/15 04:47:05;;;;;;;8.10;3.23;;;11.10;99.90;;;;;;5034691;28;20568;-73
2023/09/15 04:49:31;;;;;;;4.33;2.70;;;11.10;99.90;;;;;;5034262;28;20429;-74
2023/09/15 04:51:57;;;;;;;3.93;2.80;;;11.10;99.90;;;;;;5034431;28;20434;-72
2023/09/15 04:54:22;;;;;;;6.67;2.80;;;11.10;99.90;;;;;;5034002;28;20207;-74
2023/09/15 04:56:48;;;;;;;5.00;3.03;;;11.10;99.90;;;;;;5033090;28;20434;-72
2023/09/15 04:59:16;;;;;;;5.10;3.50;;;11.10;99.90;;;;;;5034401;28;20225;-74
2023/09/15 05:01:46;;;;;;;7.40;2.97;;;11.10;99.90;;;;;;5034288;28;20564;-74
2023/09/15 05:04:14;;;;;;;4.60;2.40;;;11.10;99.90;;;;;;5034012;28;20425;-73
2023/09/15 05:06:40;;;;;;;4.57;3.20;;;11.10;99.90;;;;;;5034195;28;20804;-72
2023/09/15 05:09:08;;;;;;;11.83;7.10;;;11.10;99.90;;;;;;5034216;28;20398;-73
2023/09/15 05:11:37;;;;;;;7.93;5.73;;;11.10;99.90;;;;;;5033747;28;20203;-73
2023/09/15 05:14:03;;;;;;;9.83;5.60;;;11.10;99.90;;;;;;5033826;28;20446;-73
2023/09/15 05:16:29;;;;;;;4.10;2.87;;;11.10;99.90;;;;;;5036711;28;20432;-74
2023/09/15 05:18:55;;;;;;;3.20;2.73;;;11.10;99.90;;;;;;5034608;28;20431;-74
2023/09/15 05:21:20;;;;;;;2.93;2.63;;;11.20;99.90;;;;;;5041958;28;20171;-75
2023/09/15 05:23:46;;;;;;;5.87;2.50;;;11.20;99.90;;;;;;5033156;28;20566;-72
2023/09/15 05:26:11;;;;;;;3.97;2.93;;;11.20;99.90;;;;;;5029585;28;20180;-73
2023/09/15 05:28:37;;;;;;;2.57;2.37;;;11.30;99.90;;;;;;5030510;28;20174;-73
2023/09/15 05:31:02;;;;;;;4.63;4.03;;;11.30;99.90;;;;;;5033611;28;20569;-74
2023/09/15 05:33:28;;;;;;;5.83;2.50;;;11.30;99.90;;;;;;5033231;28;20195;-73
2023/09/15 05:35:57;;;;;;;3.07;2.67;;;11.40;99.90;;;;;;5033584;28;20600;-73
2023/09/15 05:38:23;;;;;;;2.63;2.03;;;11.40;99.90;;;;;;5033498;28;20279;-73
2023/09/15 05:40:49;;;;;;;3.63;2.17;;;11.50;99.90;;;;;;5031813;28;20774;-74
2023/09/15 05:43:16;;;;;;;2.67;2.47;;;11.50;99.90;;;;;;5033237;28;20453;-74
2023/09/15 05:45:42;;;;;;;3.20;2.43;;;11.60;99.90;;;;;;5033296;28;20757;-75
2023/09/15 05:48:12;;;;;;;2.80;2.40;;;11.60;99.90;;;;;;5033589;28;20395;-75
2023/09/15 05:50:38;;;;;;;2.67;2.47;;;11.70;99.90;;;;;;5033398;28;20394;-75
2023/09/15 05:53:04;;;;;;;3.13;2.83;;;11.70;99.90;;;;;;5033252;28;20407;-75
2023/09/15 05:55:30;;;;;;;3.40;3.10;;;11.70;99.90;;;;;;5032484;28;20454;-73
2023/09/15 05:57:55;;;;;;;3.50;2.90;;;11.70;99.90;;;;;;5031907;28;20175;-72
2023/09/15 06:00:22;;;;;;;4.57;3.20;;;11.70;99.90;;;;;;5033194;28;20171;-73
2023/09/15 06:02:47;;;;;;;6.30;3.57;;;11.80;99.90;;;;;;5032838;28;20203;-73
2023/09/15 06:05:13;;;;;;;2.93;2.50;;;11.70;99.90;;;;;;5032751;28;20823;-74
2023/09/15 06:07:38;;;;;;;3.67;2.77;;;11.80;99.90;;;;;;5033027;28;20681;-73
2023/09/15 06:10:08;;;;;;;6.30;3.27;;;11.90;99.90;;;;;;5033072;28;20160;-73
2023/09/15 06:12:34;;;;;;;6.70;3.17;;;12.20;99.90;;;;;;5032944;28;20164;-74
2023/09/15 06:14:59;;;;;;;6.40;3.57;;;12.50;99.90;;;;;;5032583;28;20418;-73
2023/09/15 06:17:25;;;;;;;3.70;3.30;;;13.00;99.90;;;;;;5031633;28;20211;-73
2023/09/15 06:19:51;;;;;;;5.20;3.10;;;13.70;99.90;;;;;;5032442;28;20233;-73
2023/09/15 06:22:17;;;;;;;4.80;2.60;;;14.50;99.90;;;;;;5037901;28;20222;-73
2023/09/15 06:24:42;;;;;;;6.70;3.57;;;15.10;99.90;;;;;;5026752;28;20480;-73
2023/09/15 06:27:08;;;;;;;5.77;3.73;;;15.70;99.90;;;;;;5032153;28;20658;-73
2023/09/15 06:29:33;;;;;;;3.80;2.27;;;16.20;99.90;;;;;;5041285;28;20250;-73
2023/09/15 06:31:59;;;;;;;2.90;2.60;;;16.70;99.90;;;;;;5031140;28;20176;-73
2023/09/15 06:34:24;;;;;;;2.93;2.63;;;17.00;99.90;;;;;;5032031;28;20214;-73
2023/09/15 06:36:50;;;;;;;3.10;2.57;;;16.90;99.90;;;;;;5039156;28;20210;-73
2023/09/15 06:39:16;;;;;;;3.90;3.00;;;17.50;99.90;;;;;;5029804;28;20571;-73
2023/09/15 06:41:41;;;;;;;3.50;2.30;;;17.80;99.90;;;;;;5032869;28;20460;-73
2023/09/15 06:44:09;;;;;;;2.90;2.60;;;17.90;99.90;;;;;;5033922;28;20556;-74
2023/09/15 06:46:34;;;;;;;5.20;2.40;;;17.70;99.90;;;;;;5040599;28;20657;-75
2023/09/15 06:49:00;;;;;;;3.60;2.60;;;17.70;99.90;;;;;;5028597;28;20402;-75
2023/09/15 06:51:27;;;;;;;4.53;2.67;;;17.80;99.90;;;;;;5032049;28;20171;-75
2023/09/15 06:53:53;;;;;;;3.67;2.63;;;18.20;99.90;;;;;;5031631;28;20226;-76
2023/09/15 06:56:18;;;;;;;3.83;2.03;;;18.00;99.90;;;;;;5032050;28;20470;-73
2023/09/15 06:58:44;;;;;;;6.70;2.77;;;17.70;99.90;;;;;;5031894;28;20267;-74
2023/09/15 07:01:09;;;;;;;4.07;2.90;;;17.20;99.90;;;;;;5024077;28;20527;-73
2023/09/15 07:03:35;;;;;;;4.27;2.90;;;17.10;99.90;;;;;;5031356;28;20207;-74
2023/09/15 07:06:01;;;;;;;3.70;2.70;;;17.20;99.90;;;;;;5031202;28;20171;-73
2023/09/15 07:08:27;;;;;;;2.97;2.77;;;16.90;99.90;;;;;;5031858;28;20237;-73
2023/09/15 07:10:52;;;;;;;3.87;3.07;;;16.70;99.90;;;;;;5031915;28;20414;-73
2023/09/15 07:13:18;;;;;;;3.40;3.10;;;16.50;99.90;;;;;;5031971;28;20175;-71
2023/09/15 07:15:47;;;;;;;4.60;3.00;;;16.30;99.90;;;;;;5031811;28;20223;-72
2023/09/15 07:18:13;;;;;;;4.77;2.97;;;16.20;99.90;;;;;;5032206;28;20249;-74
2023/09/15 07:20:38;;;;;;;3.70;3.00;;;16.60;99.90;;;;;;5033959;28;20426;-73
2023/09/15 07:23:04;;;;;;;3.30;2.97;;;16.60;99.90;;;;;;5027223;28;21022;-72
2023/09/15 07:25:30;;;;;;;4.13;3.70;;;16.50;99.90;;;;;;5030177;28;20187;-73
2023/09/15 07:27:55;;;;;;;3.37;3.07;;;16.40;99.90;;;;;;5026866;28;20171;-72
2023/09/15 07:30:21;;;;;;;8.83;3.57;;;16.30;99.90;;;;;;5031601;28;20220;-72
2023/09/15 07:32:49;;;;;;;3.93;3.47;;;16.30;99.90;;;;;;5030217;28;20566;-72
2023/09/15 07:35:14;;;;;;;4.60;3.40;;;16.20;99.90;;;;;;5020145;28;20200;-73
2023/09/15 07:37:41;;;;;;;6.73;3.40;;;16.30;99.90;;;;;;5019876;28;20434;-72
2023/09/15 07:40:07;;;;;;;5.83;2.83;;;16.40;99.90;;;;;;5027839;28;20278;-73
2023/09/15 07:42:33;;;;;;;5.03;3.40;;;16.40;99.90;;;;;;5022182;28;20828;-73
2023/09/15 07:44:59;;;;;;;4.37;2.93;;;16.50;99.90;;;;;;5031298;28;20430;-72
2023/09/15 07:47:25;;;;;;;9.50;3.50;;;16.50;99.90;;;;;;5030321;28;20421;-72
2023/09/15 07:49:51;;;;;;;3.23;2.90;;;16.60;99.90;;;;;;5031582;28;20217;-71
2023/09/15 07:52:18;;;;;;;7.90;3.60;;;16.70;99.90;;;;;;5031613;28;20406;-71
2023/09/15 07:54:44;;;;;;;5.10;2.57;;;16.70;99.90;;;;;;5031532;28;20528;-71
2023/09/15 07:57:09;;;;;;;3.63;2.50;;;16.90;99.90;;;;;;5043398;28;20571;-71
2023/09/15 07:59:35;;;;;;;3.63;3.10;;;17.10;99.90;;;;;;5035560;28;20527;-71
2023/09/15 08:02:00;;;;;;;4.23;2.70;;;17.20;99.90;;;;;;5039389;28;20359;-71
2023/09/15 08:04:26;;;;;;;4.67;2.80;;;17.50;99.90;;;;;;5031022;28;20261;-71
2023/09/15 08:06:52;;;;;;;3.93;2.90;;;18.00;99.90;;;;;;5031256;28;20263;-72
2023/09/15 08:09:18;;;;;;;3.77;2.70;;;19.00;99.90;;;;;;5031358;28;20190;-72
2023/09/15 08:11:44;;;;;;;7.00;2.53;;;19.90;99.90;;;;;;5031098;28;20418;-72
2023/09/15 08:14:09;;;;;;;3.93;3.50;;;20.40;99.90;;;;;;5029704;28;20434;-72
2023/09/15 08:16:35;;;;;;;3.23;2.80;;;21.20;99.90;;;;;;5034473;28;20179;-72
2023/09/15 08:19:00;;;;;;;3.00;2.30;;;22.30;99.90;;;;;;5032812;28;20175;-72
2023/09/15 08:21:26;;;;;;;6.37;3.23;;;24.20;99.90;;;;;;5040677;28;20167;-72
2023/09/15 08:23:52;;;;;;;4.20;2.47;;;25.90;99.90;;;;;;5037854;28;20563;-72
2023/09/15 08:26:17;;;;;;;3.17;2.87;;;26.20;95.50;;;;;;5041957;28;20243;-72
2023/09/15 08:28:43;;;;;;;5.63;3.03;;;26.80;92.70;;;;;;5033567;28;20175;-73
2023/09/15 08:31:11;;;;;;;4.63;3.00;;;28.50;88.10;;;;;;5034781;28;20180;-72
2023/09/15 08:33:36;;;;;;;5.10;3.30;;;30.10;71.50;;;;;;5034309;28;20234;-73
2023/09/15 08:36:03;;;;;;;3.40;3.10;;;31.60;60.60;;;;;;5034790;28;20913;-73
2023/09/15 08:38:31;;;;;;;4.20;2.63;;;33.20;55.20;;;;;;5034859;28;20156;-72
2023/09/15 08:41:12;;;;;;;4.40;2.43;;;34.90;50.90;;;;;;5034787;28;20434;-74
2023/09/15 08:43:37;;;;;;;4.30;2.40;;;36.60;47.70;;;;;;5034407;28;21099;-73
2023/09/15 08:46:05;;;;;;;4.13;2.87;;;38.10;40.90;;;;;;5036114;28;20515;-71
2023/09/15 08:48:37;;;;;;;4.33;3.10;;;39.70;40.30;;;;;;5039660;28;20182;-72
2023/09/15 08:51:03;;;;;;;4.70;3.53;;;39.80;34.90;;;;;;5034621;28;20414;-72
2023/09/15 08:53:29;;;;;;;3.40;3.10;;;40.90;34.40;;;;;;5033920;28;20434;-74
2023/09/15 08:55:55;;;;;;;2.33;2.07;;;41.70;33.20;;;;;;5034313;28;20414;-74
2023/09/15 08:58:21;;;;;;;2.83;2.20;;;43.00;33.30;;;;;;5029416;28;20465;-74
2023/09/15 09:00:46;;;;;;;3.30;3.00;;;44.20;31.90;;;;;;5031121;28;20262;-73
2023/09/15 09:03:15;;;;;;;3.57;2.70;;;44.60;28.50;;;;;;5032896;28;20305;-73
2023/09/15 09:05:46;;;;;;;2.90;2.70;;;45.50;29.60;;;;;;5034114;28;20167;-72
2023/09/15 09:08:12;;;;;;;3.50;2.50;;;46.40;27.90;;;;;;5034307;28;20777;-72
2023/09/15 09:10:38;;;;;;;3.50;2.50;;;47.30;28.00;;;;;;5034333;28;20771;-73
2023/09/15 09:13:03;;;;;;;3.70;2.30;;;48.30;27.70;;;;;;5032738;28;20381;-73
2023/09/15 09:15:32;;;;;;;3.83;2.80;;;49.10;26.40;;;;;;5033901;28;20658;-73
2023/09/15 09:17:57;;;;;;;4.17;3.20;;;49.30;24.50;;;;;;5034098;28;20697;-73
2023/09/15 09:20:24;;;;;;;3.90;2.43;;;47.50;23.20;;;;;;5034166;28;20373;-73
2023/09/15 09:22:51;;;;;;;2.67;2.47;;;47.50;25.40;;;;;;5033805;28;20249;-73
2023/09/15 09:25:28;;;;;;;3.33;2.77;;;47.80;24.40;;;;;;5033729;28;20427;-73
2023/09/15 09:27:57;;;;;;;5.50;3.33;;;48.70;25.40;;;;;;5032859;28;20954;-73
2023/09/15 09:30:26;;;;;;;3.17;2.73;;;49.30;24.10;;;;;;5033086;28;20876;-73
2023/09/15 09:32:51;;;;;;;2.67;2.47;;;50.00;23.70;;;;;;5033696;28;20413;-74
2023/09/15 09:35:17;;;;;;;3.23;3.00;;;50.20;23.10;;;;;;5033594;28;20471;-73
2023/09/15 09:37:42;;;;;;;3.00;2.63;;;50.80;23.40;;;;;;5033695;28;20163;-73
2023/09/15 09:40:09;;;;;;;3.43;3.10;;;50.70;23.60;;;;;;5033041;28;20317;-73
2023/09/15 09:42:34;;;;;;;4.37;3.30;;;51.50;23.50;;;;;;5039911;28;20201;-73
2023/09/15 09:45:00;;;;;;;3.10;2.80;;;52.00;22.10;;;;;;5035774;28;20412;-73
2023/09/15 09:47:26;;;;;;;5.40;3.00;;;51.80;22.70;;;;;;5033486;28;20203;-73
2023/09/15 09:49:52;;;;;;;2.80;2.60;;;52.50;21.70;;;;;;5026979;28;20200;-72
2023/09/15 09:52:17;;;;;;;3.40;3.10;;;52.70;22.40;;;;;;5021722;28;20701;-73
2023/09/15 09:54:44;;;;;;;3.40;2.87;;;52.80;20.80;;;;;;5023312;28;20211;-73
2023/09/15 09:57:09;;;;;;;3.27;3.00;;;53.20;21.70;;;;;;5024668;28;20187;-74
2023/09/15 09:59:38;;;;;;;4.13;3.63;;;53.70;21.10;;;;;;5016846;28;20393;-73
2023/09/15 10:02:04;;;;;;;3.07;2.87;;;53.80;19.90;;;;;;5023172;28;20582;-72
2023/09/15 10:04:29;;;;;;;2.67;2.37;;;53.70;20.30;;;;;;5021090;28;20430;-73
2023/09/15 10:06:56;;;;;;;3.00;2.70;;;54.00;20.50;;;;;;5019308;28;20172;-72
2023/09/15 10:09:21;;;;;;;3.07;2.87;;;54.70;20.80;;;;;;5020360;28;20171;-73
2023/09/15 10:11:48;;;;;;;3.23;3.03;;;55.20;20.50;;;;;;5018971;28;20448;-72
2023/09/15 10:14:14;;;;;;;3.67;3.40;;;55.40;19.90;;;;;;5020521;28;20214;-73
2023/09/15 10:16:40;;;;;;;3.03;2.73;;;55.20;19.20;;;;;;5033090;28;20410;-73
2023/09/15 10:19:07;;;;;;;3.20;3.00;;;54.70;19.70;;;;;;5033868;28;20558;-74
2023/09/15 10:21:34;;;;;;;3.43;3.17;;;53.90;19.00;;;;;;5036786;28;20847;-74
2023/09/15 10:24:10;;;;;;;3.30;3.00;;;54.00;19.80;;;;;;5032565;28;20411;-74
2023/09/15 10:26:41;;;;;;;3.50;3.20;;;54.70;19.30;;;;;;5032969;28;20380;-73
2023/09/15 10:29:08;;;;;;;3.90;3.60;;;55.30;19.80;;;;;;5032777;28;20815;-74
2023/09/15 10:31:34;;;;;;;3.30;3.00;;;54.00;17.80;;;;;;5032682;28;20406;-73
2023/09/15 10:34:04;;;;;;;3.30;3.00;;;54.00;19.40;;;;;;5032477;28;20418;-73
2023/09/15 10:36:32;;;;;;;2.67;2.57;;;54.10;19.00;;;;;;5032591;28;20309;-73
2023/09/15 10:38:58;;;;;;;3.17;2.97;;;53.90;19.30;;;;;;5033004;28;20406;-74
2023/09/15 10:41:28;;;;;;;3.00;2.80;;;54.00;19.00;;;;;;5032761;28;20433;-74
2023/09/15 10:43:54;;;;;;;3.20;3.00;;;54.60;19.00;;;;;;5031979;28;21022;-74
2023/09/15 10:46:20;;;;;;;3.63;3.33;;;55.60;19.30;;;;;;5040638;28;20464;-74
2023/09/15 10:48:47;;;;;;;3.30;3.10;;;55.30;17.50;;;;;;5024601;28;20218;-74
2023/09/15 10:51:16;;;;;;;3.67;3.37;;;55.50;18.10;;;;;;5031818;28;20179;-74
2023/09/15 10:53:46;;;;;;;4.23;3.93;;;55.30;17.80;;;;;;5030325;28;20829;-75
2023/09/15 10:56:13;;;;;;;3.63;3.33;;;55.90;18.20;;;;;;5032116;28;20409;-75
2023/09/15 10:58:40;;;;;;;4.33;2.90;;;55.00;17.40;;;;;;5032080;28;20398;-75
2023/09/15 11:01:08;;;;;;;3.10;2.90;;;54.60;17.80;;;;;;5029417;28;20425;-74
2023/09/15 11:03:36;;;;;;;3.23;3.03;;;54.80;18.30;;;;;;5032186;28;21074;-75
2023/09/15 11:06:03;;;;;;;3.10;2.87;;;55.70;18.70;;;;;;5030639;28;20418;-74
2023/09/15 11:08:29;;;;;;;3.63;3.33;;;56.20;17.90;;;;;;5031766;28;20454;-74
2023/09/15 11:10:59;;;;;;;3.47;3.27;;;57.00;18.50;;;;;;5030644;28;20509;-75
2023/09/15 11:13:25;;;;;;;4.17;3.87;;;57.80;17.90;;;;;;5031836;28;20548;-76
2023/09/15 11:15:51;;;;;;;3.30;3.10;;;56.80;16.70;;;;;;5035303;28;20405;-73
2023/09/15 11:18:17;;;;;;;3.30;3.20;;;56.90;18.00;;;;;;5023941;28;20429;-75
2023/09/15 11:20:43;;;;;;;3.53;3.33;;;57.60;17.50;;;;;;5030763;28;20448;-75
2023/09/15 11:23:09;;;;;;;3.57;3.27;;;57.50;17.10;;;;;;5031550;28;20457;-74
2023/09/15 11:25:35;;;;;;;3.33;3.13;;;57.70;17.80;;;;;;5025704;28;20189;-74
2023/09/15 11:28:01;;;;;;;3.10;2.90;;;58.40;17.60;;;;;;5031780;28;20179;-75
2023/09/15 11:30:28;;;;;;;3.90;3.50;;;58.20;16.20;;;;;;5032847;28;20449;-75
2023/09/15 11:32:54;;;;;;;4.70;3.30;;;57.10;16.20;;;;;;5034760;28;20194;-75
2023/09/15 11:35:22;;;;;;;3.73;3.53;;;56.30;17.10;;;;;;5031487;28;20520;-75
2023/09/15 11:37:48;;;;;;;3.40;3.20;;;57.10;17.90;;;;;;5040086;28;20475;-75
2023/09/15 11:40:23;;;;;;;2.90;2.80;;;57.60;16.30;;;;;;5030305;28;20816;-73
2023/09/15 11:42:56;;;;;;;2.90;2.80;;;57.60;15.80;;;;;;5031665;28;20237;-76
2023/09/15 11:45:26;;;;;;;3.40;3.20;;;57.70;17.00;;;;;;5029998;28;20461;-74
2023/09/15 11:47:55;;;;;;;3.40;3.20;;;58.00;17.00;;;;;;5031990;28;20539;-74
2023/09/15 11:50:21;;;;;;;4.17;3.87;;;58.50;17.40;;;;;;5031749;28;20485;-75
2023/09/15 11:52:46;;;;;;;3.83;3.63;;;59.30;17.10;;;;;;5031389;28;21070;-74
2023/09/15 11:55:23;;;;;;;4.00;3.80;;;59.70;16.50;;;;;;5035295;28;20685;-74
2023/09/15 11:57:51;;;;;;;4.10;3.77;;;60.10;16.50;;;;;;5035460;28;20648;-75
2023/09/15 12:00:21;;;;;;;4.00;3.80;;;60.50;16.50;;;;;;5035507;28;20421;-74
2023/09/15 12:02:48;;;;;;;4.37;4.17;;;60.80;16.50;;;;;;5034145;28;20410;-75
2023/09/15 12:05:19;;;;;;;4.27;4.07;;;61.20;16.30;;;;;;5035195;28;20480;-75
2023/09/15 12:07:45;;;;;;;4.30;4.10;;;61.50;16.50;;;;;;5035492;28;20413;-75
2023/09/15 12:10:15;;;;;;;4.60;4.40;;;61.60;16.20;;;;;;5035510;28;20700;-75
2023/09/15 12:12:42;;;;;;;5.22;5.03;;;61.60;15.90;;;;;;5035245;28;20736;-76
2023/09/15 12:15:08;;;;;;;12.70;3.97;;;61.00;14.40;;;;;;5035192;28;20183;-74
2023/09/15 12:17:36;;;;;;;3.97;3.77;;;58.90;14.70;;;;;;5035264;28;20410;-73
2023/09/15 12:20:06;;;;;;;3.70;3.40;;;58.40;15.40;;;;;;5030402;28;20255;-74
2023/09/15 12:22:40;;;;;;;3.50;3.40;;;58.30;15.50;;;;;;5034936;28;20448;-74
2023/09/15 12:25:10;;;;;;;3.63;3.40;;;58.20;15.40;;;;;;5034734;28;20432;-74
2023/09/15 12:27:39;;;;;;;3.07;2.97;;;58.40;17.00;;;;;;5035194;28;20401;-74
2023/09/15 12:30:05;;;;;;;3.80;3.60;;;58.80;16.70;;;;;;5034696;28;20787;-74
2023/09/15 12:32:32;;;;;;;3.30;3.10;;;59.20;16.70;;;;;;5039557;28;20449;-74
2023/09/15 12:34:58;;;;;;;3.37;3.17;;;59.30;16.20;;;;;;5045548;28;20435;-74
2023/09/15 12:37:29;;;;;;;3.60;3.40;;;59.40;16.30;;;;;;5029298;28;20798;-74
2023/09/15 12:39:54;;;;;;;3.30;3.10;;;58.80;15.00;;;;;;5031271;28;20904;-74
2023/09/15 12:42:20;;;;;;;3.50;3.30;;;57.60;14.90;;;;;;5034592;28;20480;-74